createdAt,value
2022-11-10T04:52:40.115Z,101827.63
2022-11-10T04:55:26.397Z,101828.00
2022-11-10T04:58:14.300Z,101827.72
2022-11-10T05:01:00.781Z,101824.31
2022-11-10T05:03:48.486Z,101822.59
2022-11-10T05:06:34.570Z,101818.50
2022-11-10T05:09:20.908Z,101826.25
2022-11-10T05:12:06.728Z,101826.53
2022-11-10T05:14:52.704Z,101826.50
2022-11-10T05:17:38.543Z,101836.75
2022-11-10T05:20:25.859Z,101832.97
2022-11-10T05:23:30.627Z,101832.25
2022-11-10T05:26:18.263Z,101834.50
2022-11-10T05:29:04.490Z,101836.16
2022-11-10T05:31:51.769Z,101837.16
2022-11-10T05:34:37.996Z,101838.53
2022-11-10T05:37:24.063Z,101842.31
2022-11-10T05:40:10.686Z,101858.31
2022-11-10T05:42:57.303Z,101855.94
2022-11-10T05:45:43.000Z,101853.22
2022-11-10T05:48:29.230Z,101855.53
2022-11-10T05:51:15.375Z,101857.31
2022-11-10T05:54:01.024Z,101853.22
2022-11-10T05:56:47.192Z,101867.59
2022-11-10T05:59:33.042Z,101873.00
2022-11-10T06:02:19.639Z,101874.31
2022-11-10T06:05:06.505Z,101881.72
2022-11-10T06:07:52.626Z,101878.81
2022-11-10T06:10:38.820Z,101877.63
2022-11-10T06:13:25.643Z,101884.34
2022-11-10T06:16:12.092Z,101888.31
2022-11-10T06:18:57.897Z,101898.50
2022-11-10T06:21:44.743Z,101907.97
2022-11-10T06:24:31.359Z,101901.81
2022-11-10T06:27:17.445Z,101906.50
2022-11-10T06:30:04.097Z,101912.13
2022-11-10T06:32:49.767Z,101919.88
2022-11-10T06:35:35.707Z,101917.41
2022-11-10T06:38:21.919Z,101917.69
2022-11-10T06:41:08.050Z,101922.44
2022-11-10T06:43:53.787Z,101929.59
2022-11-10T06:46:42.279Z,101934.69
2022-11-10T06:49:28.990Z,101936.16
2022-11-10T06:52:15.014Z,101945.41
2022-11-10T06:55:01.250Z,101941.38
2022-11-10T06:57:46.831Z,101946.38
2022-11-10T07:00:32.576Z,101953.38
2022-11-10T07:03:18.198Z,101959.09
2022-11-10T07:06:04.721Z,101966.94
2022-11-10T07:08:51.179Z,101967.94
2022-11-10T07:11:36.915Z,101961.13
2022-11-10T07:14:23.236Z,101970.63
2022-11-10T07:17:09.252Z,101964.31
2022-11-10T07:19:55.013Z,101972.25
2022-11-10T07:22:41.387Z,101976.44
2022-11-10T07:25:28.520Z,101976.47
2022-11-10T07:28:14.563Z,101971.94
2022-11-10T07:31:04.113Z,101985.53
2022-11-10T07:33:54.382Z,101994.69
2022-11-10T07:36:40.584Z,102001.78
2022-11-10T07:39:26.458Z,102000.50
2022-11-10T07:42:12.361Z,102005.09
2022-11-10T07:44:59.014Z,102005.22
2022-11-10T07:47:45.907Z,102009.78
2022-11-10T07:50:52.487Z,102013.56
2022-11-10T07:53:39.783Z,102015.63
2022-11-10T07:56:26.931Z,102025.22
2022-11-10T07:59:13.268Z,102034.88
2022-11-10T08:01:59.151Z,102043.06
2022-11-10T08:04:45.006Z,102044.19
2022-11-10T08:07:31.154Z,102044.91
2022-11-10T08:10:17.935Z,102051.41
2022-11-10T08:13:06.966Z,102058.38
2022-11-10T08:15:52.780Z,102061.56
2022-11-10T08:18:38.771Z,102065.38
2022-11-10T08:21:24.378Z,102072.06
2022-11-10T08:24:10.109Z,102065.19
2022-11-10T08:26:56.526Z,102070.00
2022-11-10T08:29:42.389Z,102074.41
2022-11-10T08:32:28.178Z,102088.44
2022-11-10T08:35:13.905Z,102086.84
2022-11-10T08:38:09.413Z,102100.31
2022-11-10T08:40:57.652Z,102093.16
2022-11-10T08:43:43.934Z,102102.69
2022-11-10T08:46:29.965Z,102104.34
2022-11-10T08:49:15.832Z,102114.97
2022-11-10T08:52:02.192Z,102107.09
2022-11-10T08:54:48.040Z,102100.47
2022-11-10T08:57:34.319Z,102107.69
2022-11-10T09:00:20.603Z,102108.66
2022-11-10T09:03:16.895Z,102104.09
2022-11-10T09:06:03.384Z,102112.47
2022-11-10T09:08:49.394Z,102110.22
2022-11-10T09:11:35.214Z,102116.56
2022-11-10T09:14:21.630Z,102116.84
2022-11-10T09:17:07.387Z,102119.25
2022-11-10T09:19:53.256Z,102126.53
2022-11-10T09:22:39.752Z,102126.84
2022-11-10T09:25:26.172Z,102133.09
2022-11-10T09:28:13.623Z,102131.97
2022-11-10T09:30:59.781Z,102132.47
2022-11-10T09:33:45.678Z,102138.47
2022-11-10T09:36:31.561Z,102145.72
2022-11-10T09:39:18.295Z,102153.53
2022-11-10T09:42:27.410Z,102157.16
2022-11-10T09:45:23.795Z,102165.16
2022-11-10T09:48:31.223Z,102165.94
2022-11-10T09:51:33.402Z,102170.72
2022-11-10T09:54:45.643Z,102167.28
2022-11-10T09:57:31.403Z,102169.13
2022-11-10T10:00:18.321Z,102166.41
2022-11-10T10:03:06.256Z,102168.28
2022-11-10T10:05:52.289Z,102159.66
2022-11-10T10:08:44.851Z,102162.28
2022-11-10T10:12:09.592Z,102158.53
2022-11-10T10:15:17.162Z,102161.78
2022-11-10T10:18:09.265Z,102162.72
2022-11-10T10:21:00.835Z,102170.03
2022-11-10T10:24:09.413Z,102170.22
2022-11-10T10:27:00.670Z,102176.75
2022-11-10T10:29:49.220Z,102172.50
2022-11-10T10:32:35.673Z,102172.88
2022-11-10T10:35:22.933Z,102171.44
2022-11-10T10:38:21.282Z,102171.00
2022-11-10T10:41:38.598Z,102174.19
2022-11-10T10:44:24.324Z,102172.34
2022-11-10T10:47:10.788Z,102173.50
2022-11-10T10:50:16.880Z,102175.28
2022-11-10T10:53:07.283Z,102178.84
2022-11-10T10:55:53.139Z,102177.03
2022-11-10T10:58:54.341Z,102188.00
2022-11-10T11:01:43.591Z,102190.19
2022-11-10T11:04:37.231Z,102193.97
2022-11-10T11:07:24.793Z,102192.25
2022-11-10T11:10:19.932Z,102200.44
2022-11-10T11:13:27.081Z,102200.00
2022-11-10T11:16:13.212Z,102179.75
2022-11-10T11:18:59.011Z,102183.88
2022-11-10T11:21:50.083Z,102190.09
2022-11-10T11:24:57.387Z,102195.22
2022-11-10T11:28:24.718Z,102186.19
2022-11-10T11:31:56.347Z,102190.44
2022-11-10T11:35:03.804Z,102190.00
2022-11-10T11:37:55.205Z,102194.97
2022-11-10T11:40:48.626Z,102193.28
2022-11-10T11:43:52.600Z,102188.69
2022-11-10T11:47:13.507Z,102190.63
2022-11-10T11:50:14.723Z,102184.66
2022-11-10T11:53:18.555Z,102175.22
2022-11-10T11:56:14.082Z,102189.66
2022-11-10T11:59:12.707Z,102184.25
2022-11-10T12:02:35.984Z,102176.03
2022-11-10T12:05:45.012Z,102191.91
2022-11-10T12:08:46.404Z,102184.91
2022-11-10T12:11:35.108Z,102193.25
2022-11-10T12:14:48.403Z,102202.91
2022-11-10T12:17:47.256Z,102206.81
2022-11-10T12:21:06.508Z,102216.09
2022-11-10T12:23:54.891Z,102227.06
2022-11-10T12:27:03.139Z,102224.53
2022-11-10T12:29:55.092Z,102228.16
2022-11-10T12:32:57.034Z,102224.53
2022-11-10T12:35:46.279Z,102220.78
2022-11-10T12:39:15.489Z,102230.75
2022-11-10T12:42:03.906Z,102230.81
2022-11-10T12:45:06.322Z,102236.88
2022-11-10T12:47:54.543Z,102240.19
2022-11-10T12:57:27.112Z,102256.69
2022-11-10T13:00:23.703Z,102251.69
2022-11-10T13:03:27.211Z,102255.50
2022-11-10T13:06:30.941Z,102264.34
2022-11-10T13:09:29.275Z,102266.75
2022-11-10T13:12:19.022Z,102271.69
2022-11-10T13:15:40.535Z,102274.00
2022-11-10T13:18:32.286Z,102278.78
2022-11-10T13:21:18.660Z,102284.97
2022-11-10T13:24:04.356Z,102283.53
2022-11-10T13:26:52.560Z,102287.59
2022-11-10T13:29:47.856Z,102283.47
2022-11-10T13:32:34.938Z,102292.44
2022-11-10T13:35:29.796Z,102301.69
2022-11-10T13:38:43.155Z,102303.50
2022-11-10T13:41:35.074Z,102302.88
2022-11-10T13:44:47.677Z,102300.25
2022-11-10T13:48:08.393Z,102305.56
2022-11-10T13:51:12.620Z,102314.41
2022-11-10T13:54:20.532Z,102313.94
2022-11-10T13:57:35.551Z,102317.78
2022-11-10T14:00:24.215Z,102319.97
2022-11-10T14:03:45.508Z,102321.22
2022-11-10T14:06:46.824Z,102331.97
2022-11-10T14:09:43.325Z,102327.53
2022-11-10T14:12:30.433Z,102333.06
2022-11-10T14:15:23.047Z,102334.88
2022-11-10T14:18:22.968Z,102339.09
2022-11-10T14:21:31.419Z,102342.69
2022-11-10T14:24:39.906Z,102329.13
2022-11-10T14:27:28.788Z,102346.44
2022-11-10T14:30:33.292Z,102354.56
2022-11-10T14:33:20.045Z,102355.25
2022-11-10T14:36:10.836Z,102355.66
2022-11-10T14:38:58.102Z,102366.03
2022-11-10T14:41:48.546Z,102371.09
2022-11-10T14:44:35.725Z,102379.34
2022-11-10T14:47:31.045Z,102384.06
2022-11-10T14:50:19.559Z,102389.25
2022-11-10T14:53:29.241Z,102388.47
2022-11-10T14:56:23.469Z,102396.19
2022-11-10T14:59:12.971Z,102401.06
2022-11-10T15:02:01.495Z,102404.75
2022-11-10T15:04:51.362Z,102408.06
2022-11-10T15:07:37.375Z,102411.75
2022-11-10T15:10:25.499Z,102420.22
2022-11-10T15:13:14.424Z,102418.44
2022-11-10T15:16:29.356Z,102422.41
2022-11-10T15:19:33.071Z,102431.28
2022-11-10T15:22:34.167Z,102439.50
2022-11-10T15:25:23.395Z,102445.34
2022-11-10T15:28:12.104Z,102439.72
2022-11-10T15:31:01.248Z,102443.25
2022-11-10T15:33:55.866Z,102448.41
2022-11-10T15:36:42.376Z,102443.28
2022-11-10T15:39:28.714Z,102453.19
2022-11-10T15:42:23.757Z,102447.66
2022-11-10T15:45:50.356Z,102448.22
2022-11-10T15:48:45.864Z,102448.78
2022-11-10T15:51:31.995Z,102458.97
2022-11-10T15:54:21.490Z,102461.72
2022-11-10T15:57:16.132Z,102472.38
2022-11-10T16:00:02.315Z,102462.47
2022-11-10T16:02:48.756Z,102457.50
2022-11-10T16:05:35.005Z,102443.22
2022-11-10T16:08:22.837Z,102436.56
2022-11-10T16:11:16.243Z,102451.84
2022-11-10T16:14:05.066Z,102469.81
2022-11-10T16:16:50.896Z,102480.84
2022-11-10T16:19:36.914Z,102500.25
2022-11-10T16:22:22.491Z,102502.97
2022-11-10T16:25:12.578Z,102509.13
2022-11-10T16:28:04.426Z,102521.03
2022-11-10T16:30:51.802Z,102519.28
2022-11-10T16:33:38.033Z,102516.56
2022-11-10T16:36:27.841Z,102537.72
2022-11-10T16:39:16.232Z,102541.69
2022-11-10T16:42:01.785Z,102542.53
2022-11-10T16:44:47.448Z,102545.28
2022-11-10T16:47:33.171Z,102550.25
2022-11-10T16:50:28.668Z,102547.16
2022-11-10T16:53:17.456Z,102548.19
2022-11-10T16:56:03.491Z,102542.84
2022-11-10T16:58:49.833Z,102540.63
2022-11-10T17:01:37.682Z,102555.94
2022-11-10T17:04:23.999Z,102563.47
2022-11-10T17:07:14.656Z,102563.81
2022-11-10T17:10:01.373Z,102582.25
2022-11-10T17:12:47.791Z,102579.72
2022-11-10T17:15:35.364Z,102582.59
2022-11-10T17:18:24.925Z,102589.63
2022-11-10T17:21:12.818Z,102594.19
2022-11-10T17:23:59.979Z,102595.03
2022-11-10T17:26:46.758Z,102606.47
2022-11-10T17:29:32.754Z,102603.94
2022-11-10T17:32:24.213Z,102601.22
2022-11-10T17:35:18.034Z,102607.88
2022-11-10T17:38:04.015Z,102610.94
2022-11-10T17:40:50.976Z,102624.16
2022-11-10T17:43:41.510Z,102622.59
2022-11-10T17:46:30.399Z,102631.13
2022-11-10T17:49:16.107Z,102635.41
2022-11-10T17:52:01.969Z,102640.03
2022-11-10T17:54:47.990Z,102647.16
2022-11-10T17:57:33.919Z,102656.38
2022-11-10T18:00:20.853Z,102663.91
2022-11-10T18:03:09.962Z,102662.53
2022-11-10T18:05:55.671Z,102666.84
2022-11-10T18:08:42.373Z,102666.19
2022-11-10T18:11:28.673Z,102656.44
2022-11-10T18:14:15.566Z,102662.91
2022-11-10T18:17:01.209Z,102661.22
2022-11-10T18:19:46.854Z,102662.06
2022-11-10T18:22:32.672Z,102667.53
2022-11-10T18:25:20.098Z,102680.53
2022-11-10T18:28:26.262Z,102679.31
2022-11-10T18:31:13.172Z,102670.09
2022-11-10T18:33:59.121Z,102682.09
2022-11-10T18:36:44.782Z,102685.31
2022-11-10T18:39:51.154Z,102697.13
2022-11-10T18:42:37.216Z,102692.84
2022-11-10T18:45:22.873Z,102693.00
2022-11-10T18:48:09.391Z,102689.38
2022-11-10T18:50:55.243Z,102694.81
2022-11-10T18:53:43.698Z,102700.75
2022-11-10T18:56:29.663Z,102693.63
2022-11-10T18:59:15.598Z,102702.91
2022-11-10T19:02:01.262Z,102712.25
2022-11-10T19:04:49.659Z,102722.13
2022-11-10T19:07:39.996Z,102737.41
2022-11-10T19:10:25.668Z,102736.44
2022-11-10T19:13:11.455Z,102735.19
2022-11-10T19:16:00.191Z,102731.47
2022-11-10T19:18:46.850Z,102743.50
2022-11-10T19:21:32.799Z,102739.13
2022-11-10T19:24:27.677Z,102748.97
2022-11-10T19:27:14.142Z,102747.25
2022-11-10T19:30:00.092Z,102749.94
2022-11-10T19:32:45.627Z,102746.09
2022-11-10T19:35:32.966Z,102758.78
2022-11-10T19:38:18.878Z,102759.69
2022-11-10T19:41:07.640Z,102761.25
2022-11-10T19:43:54.290Z,102774.97
2022-11-10T19:46:40.562Z,102778.66
2022-11-10T19:49:26.294Z,102784.63
2022-11-10T19:52:12.294Z,102789.44
2022-11-10T19:54:58.158Z,102788.59
2022-11-10T19:57:44.692Z,102792.88
2022-11-10T20:00:30.728Z,102792.56
2022-11-10T20:03:16.359Z,102794.72
2022-11-10T20:06:05.155Z,102802.59
2022-11-10T20:08:51.135Z,102786.47
2022-11-10T20:11:36.877Z,102803.03
2022-11-10T20:14:22.945Z,102798.00
2022-11-10T20:17:08.966Z,102802.41
2022-11-10T20:19:54.755Z,102810.28
2022-11-10T20:22:40.986Z,102810.81
2022-11-10T20:25:27.820Z,102809.53
2022-11-10T20:28:14.275Z,102805.44
2022-11-10T20:31:00.769Z,102809.66
2022-11-10T20:33:51.938Z,102808.03
2022-11-10T20:36:37.895Z,102810.13
2022-11-10T20:39:23.999Z,102816.44
2022-11-10T20:42:13.422Z,102824.47
2022-11-10T20:44:59.299Z,102823.47
2022-11-10T20:47:45.350Z,102830.09
2022-11-10T20:50:32.182Z,102836.44
2022-11-10T20:53:18.219Z,102848.97
2022-11-10T20:56:05.263Z,102847.28
2022-11-10T20:58:52.535Z,102849.63
2022-11-10T21:01:39.025Z,102853.13
2022-11-10T21:04:25.709Z,102855.50
2022-11-10T21:07:11.932Z,102852.44
2022-11-10T21:09:58.323Z,102848.78
2022-11-10T21:12:50.054Z,102860.44
2022-11-10T21:15:39.758Z,102853.72
2022-11-10T21:18:31.867Z,102865.34
2022-11-10T21:21:23.302Z,102870.50
2022-11-10T21:24:10.143Z,102860.69
2022-11-10T21:26:57.696Z,102854.69
2022-11-10T21:29:43.778Z,102843.88
2022-11-10T21:32:29.701Z,102847.47
2022-11-10T21:35:16.509Z,102850.38
2022-11-10T21:38:02.244Z,102845.81
2022-11-10T21:40:48.140Z,102851.00
2022-11-10T21:43:33.870Z,102849.00
2022-11-10T21:46:20.001Z,102847.22
2022-11-10T21:49:07.954Z,102841.38
2022-11-10T21:51:54.377Z,102845.72
2022-11-10T21:54:40.231Z,102848.22
2022-11-10T21:57:26.583Z,102853.25
2022-11-10T22:00:13.870Z,102851.84
2022-11-10T22:03:04.062Z,102843.97
2022-11-10T22:05:50.375Z,102851.69
2022-11-10T22:08:37.124Z,102851.38
2022-11-10T22:11:49.589Z,102845.81
2022-11-10T22:14:54.204Z,102841.75
2022-11-10T22:17:59.407Z,102836.78
2022-11-10T22:20:46.501Z,102846.44
2022-11-10T22:23:51.110Z,102852.59
2022-11-10T22:26:37.329Z,102860.31
2022-11-10T22:29:30.120Z,102865.59
2022-11-10T22:32:17.276Z,102865.28
2022-11-10T22:35:02.961Z,102882.81
2022-11-10T22:37:48.882Z,102879.06
2022-11-10T22:40:55.033Z,102883.63
2022-11-10T22:43:59.504Z,102888.72
2022-11-10T22:46:48.989Z,102893.47
2022-11-10T22:49:35.443Z,102891.31
2022-11-10T22:52:21.152Z,102886.06
2022-11-10T22:55:07.498Z,102888.63
2022-11-10T22:57:53.582Z,102895.47
2022-11-10T23:00:40.539Z,102893.53
2022-11-10T23:03:26.242Z,102897.00
2022-11-10T23:06:12.869Z,102894.72
2022-11-10T23:09:00.154Z,102890.09
2022-11-10T23:11:46.389Z,102890.28
2022-11-10T23:14:32.242Z,102894.44
2022-11-10T23:17:17.968Z,102886.00
2022-11-10T23:20:04.035Z,102882.44
2022-11-10T23:22:50.257Z,102874.41
2022-11-10T23:25:36.428Z,102882.69
2022-11-10T23:28:22.676Z,102874.47
2022-11-10T23:31:23.408Z,102876.94
2022-11-10T23:34:09.099Z,102877.09
2022-11-10T23:36:54.671Z,102886.59
2022-11-10T23:39:40.795Z,102880.16
2022-11-10T23:42:28.751Z,102882.44
2022-11-10T23:45:14.754Z,102888.63
2022-11-10T23:48:20.992Z,102881.03
2022-11-10T23:51:10.803Z,102883.34
2022-11-10T23:53:57.048Z,102890.19
